Time;durP1;ratioP1;P1;durP2;ratioP2;P2;SDS_P1;SDS_P2;PMS_P1;PMS_P2;Temp;Humidity;BMP_temperature;BMP_pressure;BME280_temperature;BME280_humidity;BME280_pressure;Samples;Min_cycle;Max_cycle;Signal;HPM_P1;HPM_P2
2023/01/16 00:01:08;;;;;;;10.20;2.90;;;;;;;2.08;76.22;99258.42;131908;1251;114459;-64
2023/01/16 00:04:15;;;;;;;4.90;2.40;;;;;;;2.07;76.05;99259.51;128917;1256;113495;-65
2023/01/16 00:07:22;;;;;;;2.70;1.70;;;;;;;2.05;76.08;99258.87;128874;1267;128735;-66
2023/01/16 00:10:27;;;;;;;4.90;2.20;;;;;;;2.03;76.19;99258.95;128822;1251;114782;-65
2023/01/16 00:13:32;;;;;;;4.80;1.90;;;;;;;2.02;75.99;99258.09;128872;1259;114431;-65
2023/01/16 00:16:35;;;;;;;3.30;1.90;;;;;;;2.00;76.06;99257.98;130246;1256;114460;-65
2023/01/16 00:19:40;;;;;;;3.80;2.20;;;;;;;1.98;76.07;99262.45;128808;1257;114552;-66
2023/01/16 00:22:44;;;;;;;2.40;1.60;;;;;;;1.95;76.21;99259.36;131939;1256;128747;-65
2023/01/16 00:25:49;;;;;;;3.40;2.00;;;;;;;1.93;76.15;99255.91;131921;1255;114725;-66
2023/01/16 00:28:58;;;;;;;4.70;2.10;;;;;;;1.91;76.24;99251.92;128779;1264;114075;-65
2023/01/16 00:32:04;;;;;;;4.70;2.30;;;;;;;1.89;76.32;99252.53;128762;1259;113407;-64
2023/01/16 00:35:09;;;;;;;4.30;2.20;;;;;;;1.87;76.57;99247.84;128768;1257;114661;-63
2023/01/16 00:38:13;;;;;;;3.30;2.00;;;;;;;1.85;76.62;99249.98;128816;1257;127892;-64
2023/01/16 00:41:17;;;;;;;4.50;2.10;;;;;;;1.84;76.45;99249.14;128914;1255;114709;-65
2023/01/16 00:44:23;;;;;;;5.50;2.20;;;;;;;1.82;76.73;99244.08;128880;1256;113557;-65
2023/01/16 00:47:28;;;;;;;4.90;2.30;;;;;;;1.82;76.61;99244.10;128864;1256;114437;-65
2023/01/16 00:50:30;;;;;;;;;;;;;;;1.81;76.74;99247.30;131812;1257;114690;-65
2023/01/16 00:53:36;;;;;;;4.70;2.10;;;;;;;1.80;76.73;99245.55;128686;1257;128788;-65
2023/01/16 00:56:39;;;;;;;4.80;1.50;;;;;;;1.80;76.55;99241.71;131962;1251;114777;-65
2023/01/16 00:59:45;;;;;;;4.30;1.90;;;;;;;1.80;76.70;99237.99;128798;1257;116486;-65
2023/01/16 01:02:50;;;;;;;6.30;2.20;;;;;;;1.81;76.54;99232.16;128941;1255;114705;-64
2023/01/16 01:05:55;;;;;;;6.20;2.60;;;;;;;1.82;76.72;99231.76;128937;1260;114789;-65
2023/01/16 01:09:00;;;;;;;2.80;2.00;;;;;;;1.84;76.48;99228.53;128652;1261;127696;-66
2023/01/16 01:12:03;;;;;;;4.70;2.00;;;;;;;1.87;76.74;99227.23;131967;1253;114549;-65
2023/01/16 01:15:09;;;;;;;4.60;2.30;;;;;;;1.89;76.62;99219.42;129022;1264;114799;-64
2023/01/16 01:18:14;;;;;;;4.00;2.30;;;;;;;1.90;76.77;99219.73;128972;1264;115401;-65
2023/01/16 01:21:20;;;;;;;2.70;1.80;;;;;;;1.90;76.87;99209.85;128843;1260;114431;-66
2023/01/16 01:24:25;;;;;;;3.60;2.20;;;;;;;1.91;76.78;99203.13;131937;1256;128688;-65
2023/01/16 01:27:30;;;;;;;4.60;2.30;;;;;;;1.94;76.77;99201.81;129081;1255;114721;-64
2023/01/16 01:30:37;;;;;;;5.80;2.10;;;;;;;1.96;76.61;99197.72;128870;1256;114041;-66
2023/01/16 01:33:44;;;;;;;6.30;2.00;;;;;;;1.98;76.59;99196.06;128932;1253;114696;-65
2023/01/16 01:36:49;;;;;;;3.30;2.10;;;;;;;2.00;76.67;99189.66;128876;1251;114692;-65
2023/01/16 01:39:54;;;;;;;2.80;1.80;;;;;;;2.02;76.90;99186.43;128793;1259;127904;-65
2023/01/16 01:43:00;;;;;;;4.00;1.60;;;;;;;2.03;76.91;99184.10;128926;1265;114696;-65
2023/01/16 01:46:05;;;;;;;3.20;1.80;;;;;;;2.04;76.56;99177.90;128892;1257;114026;-66
2023/01/16 01:49:31;;;;;;;4.90;2.30;;;;;;;2.04;76.52;99180.19;128832;1256;114446;-65
2023/01/16 01:52:36;;;;;;;5.50;1.70;;;;;;;2.04;76.66;99180.73;128818;1256;114705;-65
2023/01/16 01:55:41;;;;;;;5.10;2.00;;;;;;;2.03;76.70;99180.59;128673;1260;127732;-65
2023/01/16 01:58:53;;;;;;;5.40;1.70;;;;;;;2.00;76.67;99178.02;128863;1257;115352;-66
2023/01/16 02:01:59;;;;;;;3.50;2.10;;;;;;;1.97;76.47;99178.30;128976;1257;114454;-65
2023/01/16 02:05:08;;;;;;;5.50;2.20;;;;;;;1.94;76.32;99176.82;128975;1257;114041;-66
2023/01/16 02:08:18;;;;;;;6.80;2.70;;;;;;;1.91;76.42;99174.61;128939;1257;114693;-66
2023/01/16 02:11:42;;;;;;;4.00;2.00;;;;;;;1.88;76.44;99172.25;131895;1256;129114;-66
2023/01/16 02:14:49;;;;;;;9.00;2.40;;;;;;;1.85;76.55;99163.71;128835;1264;114719;-65
2023/01/16 02:21:35;;;;;;;3.00;1.90;;;;;;;1.81;76.49;99156.48;129113;1257;114040;-66
2023/01/16 02:24:53;;;;;;;3.20;2.20;;;;;;;1.80;76.58;99156.67;129244;1257;114783;-64
2023/01/16 02:28:40;;;;;;;3.70;2.30;;;;;;;1.78;76.50;99155.86;129191;1257;128718;-65
2023/01/16 02:32:04;;;;;;;4.40;2.30;;;;;;;1.77;76.81;99157.30;128906;1264;115422;-64
2023/01/16 02:35:16;;;;;;;3.80;2.30;;;;;;;1.76;76.83;99155.35;131955;1252;114072;-64
2023/01/16 02:38:55;;;;;;;5.80;2.60;;;;;;;1.78;76.74;99151.81;129154;1257;114689;-64
2023/01/16 02:42:42;;;;;;;6.30;2.50;;;;;;;1.78;76.91;99151.61;128822;1257;114794;-64
2023/01/16 02:46:22;;;;;;;6.50;3.00;;;;;;;1.78;76.80;99144.39;128849;1264;127652;-64
2023/01/16 02:49:56;;;;;;;5.50;3.30;;;;;;;1.78;76.67;99141.24;128503;1260;114769;-65
2023/01/16 02:53:14;;;;;;;5.40;2.60;;;;;;;1.77;76.77;99134.23;128498;1261;113236;-65
2023/01/16 02:56:32;;;;;;;4.20;2.10;;;;;;;1.77;76.77;99128.61;128601;1257;113422;-64
2023/01/16 02:59:44;;;;;;;5.10;2.00;;;;;;;1.78;76.69;99126.11;128490;1260;114848;-64
2023/01/16 03:02:47;;;;;;;7.40;3.50;;;;;;;1.78;76.67;99120.98;131429;1260;127871;-64
2023/01/16 03:06:05;;;;;;;4.00;1.70;;;;;;;1.79;76.89;99120.27;128463;1257;115377;-65
2023/01/16 03:09:09;;;;;;;3.40;1.70;;;;;;;1.79;76.73;99123.09;131524;1257;114472;-65
2023/01/16 03:12:14;;;;;;;4.00;1.90;;;;;;;1.79;77.01;99123.24;131419;1260;114459;-66
2023/01/16 03:15:30;;;;;;;7.10;1.80;;;;;;;1.80;76.78;99119.86;128464;1261;115334;-65
2023/01/16 03:18:49;;;;;;;2.60;1.50;;;;;;;1.80;76.83;99120.75;128507;1269;127615;-66
2023/01/16 03:22:23;;;;;;;6.30;1.90;;;;;;;1.79;76.81;99120.41;128668;1261;114775;-64
2023/01/16 03:26:04;;;;;;;;;;;;;;;1.77;76.54;99118.75;128777;1260;113286;-65
2023/01/16 03:29:24;;;;;;;4.10;2.10;;;;;;;1.72;76.84;99112.23;128496;1268;114453;-65
2023/01/16 03:32:40;;;;;;;4.90;2.00;;;;;;;1.67;76.99;99114.83;128206;1271;114450;-65
2023/01/16 03:35:56;;;;;;;5.70;2.50;;;;;;;1.63;76.81;99119.00;128323;1264;127900;-65
2023/01/16 03:39:00;;;;;;;3.30;1.80;;;;;;;1.59;76.65;99116.14;131261;1261;115473;-65
2023/01/16 03:42:46;;;;;;;3.50;1.80;;;;;;;1.56;76.56;99120.63;128332;1261;114633;-65
2023/01/16 03:45:59;;;;;;;5.50;2.50;;;;;;;1.53;76.65;99116.88;128212;1263;113672;-65
2023/01/16 03:49:21;;;;;;;4.30;2.00;;;;;;;1.48;76.52;99113.66;128111;1263;114517;-64
2023/01/16 03:52:41;;;;;;;2.70;1.90;;;;;;;1.43;76.53;99105.02;128150;1263;127759;-64
2023/01/16 03:55:52;;;;;;;3.10;2.10;;;;;;;1.39;76.63;99101.83;128203;1264;114973;-64
2023/01/16 03:58:57;;;;;;;5.50;2.10;;;;;;;1.34;76.56;99105.48;128243;1263;114045;-64
2023/01/16 04:02:29;;;;;;;3.70;2.10;;;;;;;1.29;76.86;99104.94;128155;1263;113294;-64
2023/01/16 04:05:49;;;;;;;5.70;2.10;;;;;;;1.24;76.89;99103.17;128799;1256;114824;-64
2023/01/16 04:08:56;;;;;;;8.40;3.30;;;;;;;1.18;76.90;99098.40;128758;1251;128652;-64
2023/01/16 04:12:02;;;;;;;8.80;3.30;;;;;;;1.13;76.74;99101.73;128922;1251;115494;-63
2023/01/16 04:15:10;;;;;;;6.90;3.80;;;;;;;1.11;76.87;99104.98;128807;1251;114041;-64
2023/01/16 04:18:17;;;;;;;9.10;4.60;;;;;;;1.07;76.84;99100.01;128919;1256;114091;-64
2023/01/16 04:21:27;;;;;;;15.70;6.10;;;;;;;1.05;77.05;99094.95;128765;1257;114431;-64
2023/01/16 04:24:32;;;;;;;14.20;6.10;;;;;;;1.04;77.24;99091.80;128783;1257;127839;-65
2023/01/16 04:27:37;;;;;;;;;;;;;;;1.04;77.18;99091.10;128775;1251;114867;-64
2023/01/16 04:30:42;;;;;;;11.60;4.90;;;;;;;1.03;77.33;99086.92;128812;1256;113493;-65
2023/01/16 04:33:47;;;;;;;15.30;5.90;;;;;;;1.03;77.27;99088.67;128792;1251;113386;-66
2023/01/16 04:36:50;;;;;;;16.50;5.60;;;;;;;1.03;77.26;99078.30;131871;1251;114661;-65
2023/01/16 04:39:53;;;;;;;12.70;5.20;;;;;;;1.04;77.60;99074.76;131837;1251;114792;-65
2023/01/16 04:42:55;;;;;;;8.60;3.90;;;;;;;1.05;77.45;99073.48;131873;1251;114807;-66
2023/01/16 04:46:01;;;;;;;8.50;3.40;;;;;;;1.06;77.59;99067.47;128784;1251;115279;-66
2023/01/16 04:49:05;;;;;;;8.90;3.30;;;;;;;1.08;77.43;99058.13;131836;1251;114858;-66
2023/01/16 04:52:13;;;;;;;4.30;2.50;;;;;;;1.09;77.56;99050.37;128996;1256;114801;-66
2023/01/16 04:55:17;;;;;;;4.50;2.20;;;;;;;1.08;77.50;99042.45;131919;1255;128816;-67
2023/01/16 04:58:19;;;;;;;4.80;2.50;;;;;;;1.09;77.72;99035.05;131785;1251;114703;-66
2023/01/16 05:01:25;;;;;;;5.70;2.50;;;;;;;1.10;77.73;99035.20;129103;1256;114427;-67
2023/01/16 05:04:34;;;;;;;7.50;2.50;;;;;;;1.09;77.49;99036.27;132017;1252;114911;-66
2023/01/16 05:07:39;;;;;;;6.30;2.50;;;;;;;1.10;77.69;99030.27;131783;1251;114712;-67
2023/01/16 05:10:44;;;;;;;4.50;2.20;;;;;;;1.10;77.78;99028.86;128865;1257;114695;-62
2023/01/16 05:13:50;;;;;;;3.00;2.00;;;;;;;1.11;77.64;99030.77;128809;1251;114782;-65
2023/01/16 05:16:53;;;;;;;5.40;2.40;;;;;;;1.11;77.67;99026.20;131928;1251;114437;-65
2023/01/16 05:19:56;;;;;;;7.70;3.00;;;;;;;1.10;77.88;99020.41;131882;1251;114622;-65
2023/01/16 05:22:59;;;;;;;13.40;4.30;;;;;;;1.10;77.77;99014.08;131843;1251;114466;-65
2023/01/16 05:26:02;;;;;;;17.10;6.70;;;;;;;1.09;77.73;99010.23;131890;1251;114700;-65
2023/01/16 05:29:05;;;;;;;17.10;7.60;;;;;;;1.08;77.75;99013.79;131915;1251;113434;-64
2023/01/16 05:32:10;;;;;;;16.30;7.10;;;;;;;1.08;77.67;99006.40;128792;1255;114578;-64
2023/01/16 05:35:15;;;;;;;17.30;7.60;;;;;;;1.08;77.87;99002.73;128849;1251;114800;-64
2023/01/16 05:38:21;;;;;;;14.80;6.50;;;;;;;1.08;77.82;99000.44;128816;1254;113680;-64
2023/01/16 05:41:30;;;;;;;15.60;6.40;;;;;;;1.07;77.58;98994.48;128729;1251;128915;-64
2023/01/16 05:44:35;;;;;;;14.40;5.50;;;;;;;1.08;77.64;98985.84;128837;1257;114670;-64
2023/01/16 05:47:40;;;;;;;11.60;5.30;;;;;;;1.09;77.85;98976.16;128870;1253;114291;-64
2023/01/16 05:50:45;;;;;;;18.60;6.20;;;;;;;1.09;77.94;98966.65;128828;1257;114080;-64
2023/01/16 05:53:53;;;;;;;13.00;6.10;;;;;;;1.10;77.87;98960.48;128820;1259;114463;-64
2023/01/16 05:56:58;;;;;;;13.60;6.30;;;;;;;1.11;78.12;98959.20;129065;1256;128175;-64
2023/01/16 06:00:04;;;;;;;9.80;4.90;;;;;;;1.12;78.04;98957.75;128859;1258;115182;-63
2023/01/16 06:03:09;;;;;;;14.90;5.30;;;;;;;1.13;78.10;98950.52;128871;1251;114450;-64
2023/01/16 06:06:14;;;;;;;10.60;4.80;;;;;;;1.16;77.89;98948.50;129123;1257;113224;-66
2023/01/16 06:09:21;;;;;;;16.90;6.90;;;;;;;1.18;78.10;98949.47;128818;1251;114087;-64
2023/01/16 06:12:26;;;;;;;20.90;8.70;;;;;;;1.20;77.87;98945.17;128700;1257;127894;-64
2023/01/16 06:15:31;;;;;;;23.90;8.90;;;;;;;1.25;78.08;98938.36;128921;1257;114735;-64
2023/01/16 06:18:36;;;;;;;25.30;9.30;;;;;;;1.27;78.25;98929.65;128881;1256;114025;-64
2023/01/16 06:21:40;;;;;;;;;;;;;;;1.31;77.98;98925.14;129138;1254;114061;-64
2023/01/16 06:24:47;;;;;;;19.90;6.00;;;;;;;1.34;78.19;98919.39;128708;1258;114088;-63
2023/01/16 06:27:53;;;;;;;14.40;5.70;;;;;;;1.37;78.25;98919.11;129065;1254;127698;-64
2023/01/16 06:30:58;;;;;;;16.20;5.90;;;;;;;1.41;78.11;98920.75;129172;1251;114696;-64
2023/01/16 06:34:06;;;;;;;15.50;5.00;;;;;;;1.44;77.98;98921.34;129236;1251;114706;-64
2023/01/16 06:37:17;;;;;;;10.10;3.10;;;;;;;1.47;78.24;98919.13;128944;1256;114060;-66
2023/01/16 06:40:22;;;;;;;8.00;3.00;;;;;;;1.51;77.87;98917.21;129359;1255;114293;-63
2023/01/16 06:43:28;;;;;;;8.60;3.00;;;;;;;1.57;77.78;98920.89;128992;1256;128310;-66
2023/01/16 06:46:33;;;;;;;6.90;3.60;;;;;;;1.61;77.76;98923.73;128852;1259;114904;-65
2023/01/16 06:49:39;;;;;;;5.70;2.60;;;;;;;1.63;77.89;98914.87;128827;1257;114283;-64
2023/01/16 06:52:44;;;;;;;;;;;;;;;1.64;77.66;98909.90;128981;1251;114815;-65
2023/01/16 06:55:53;;;;;;;4.20;2.10;;;;;;;1.65;77.90;98914.09;128892;1257;114729;-64
2023/01/16 06:58:58;;;;;;;7.80;2.50;;;;;;;1.70;77.87;98920.27;128747;1256;127802;-64
2023/01/16 07:02:02;;;;;;;;;;;;;;;1.75;77.98;98920.61;128899;1257;114690;-64
2023/01/16 07:05:13;;;;;;;8.30;2.70;;;;;;;1.78;77.97;98915.21;128878;1254;114428;-65
2023/01/16 07:08:17;;;;;;;7.00;2.90;;;;;;;1.81;78.03;98910.56;129003;1253;114506;-64
2023/01/16 07:11:23;;;;;;;7.20;3.10;;;;;;;1.85;77.67;98907.60;128960;1256;114044;-63
2023/01/16 07:24:49;;;;;;;9.20;2.50;;;;;;;2.01;77.58;98901.88;131972;1251;114578;-64
2023/01/16 07:27:56;;;;;;;6.50;2.70;;;;;;;2.06;77.61;98902.26;128848;1256;116040;-64
2023/01/16 07:31:03;;;;;;;7.60;3.70;;;;;;;2.10;77.66;98902.98;128885;1251;128475;-66
2023/01/16 07:34:09;;;;;;;7.50;3.10;;;;;;;2.15;77.32;98898.74;129191;1253;115279;-66
2023/01/16 07:37:14;;;;;;;8.70;3.50;;;;;;;2.20;77.42;98899.77;129138;1253;114039;-64
2023/01/16 07:40:19;;;;;;;8.80;3.50;;;;;;;2.26;77.22;98888.79;130762;1251;265173;-63
2023/01/16 07:43:23;;;;;;;7.40;4.00;;;;;;;2.33;77.58;98885.91;128930;1259;114503;-64
2023/01/16 07:46:31;;;;;;;5.50;2.80;;;;;;;2.39;77.18;98880.38;128939;1256;127848;-65
2023/01/16 07:49:37;;;;;;;10.00;2.90;;;;;;;2.45;77.07;98868.18;129110;1256;114702;-64
2023/01/16 07:52:46;;;;;;;7.20;3.00;;;;;;;2.50;76.99;98862.31;129037;1256;114884;-64
2023/01/16 07:55:52;;;;;;;10.90;3.20;;;;;;;2.56;76.70;98852.57;129034;1251;113811;-64
2023/01/16 07:58:57;;;;;;;11.00;4.10;;;;;;;2.62;76.84;98849.35;128907;1257;114710;-64
2023/01/16 08:02:03;;;;;;;11.60;4.00;;;;;;;2.68;76.85;98848.90;129018;1257;127751;-64
2023/01/16 08:05:08;;;;;;;8.70;4.20;;;;;;;2.75;76.86;98852.52;128977;1256;115890;-63
2023/01/16 08:08:13;;;;;;;8.70;3.30;;;;;;;2.80;76.68;98851.41;128984;1251;113404;-66
2023/01/16 08:11:36;;;;;;;9.40;3.00;;;;;;;2.86;76.46;98842.89;131875;1253;113486;-64
2023/01/16 08:14:46;;;;;;;10.90;7.00;;;;;;;2.93;76.31;98835.04;128832;1251;114966;-64
2023/01/16 08:17:53;;;;;;;14.40;8.30;;;;;;;2.99;76.65;98827.16;128854;1256;126824;-64
2023/01/16 08:21:04;;;;;;;7.80;3.10;;;;;;;3.06;76.49;98824.77;128859;1255;114600;-64
2023/01/16 08:24:14;;;;;;;11.80;3.90;;;;;;;3.15;76.35;98818.08;128858;1252;114641;-65
2023/01/16 08:27:23;;;;;;;10.20;3.60;;;;;;;3.22;76.18;98816.84;130007;1253;114450;-65
2023/01/16 08:30:28;;;;;;;6.00;3.20;;;;;;;3.28;76.02;98809.03;128900;1256;114658;-66
2023/01/16 08:33:31;;;;;;;7.10;3.00;;;;;;;3.35;76.15;98806.40;132021;1251;127880;-65
2023/01/16 08:36:37;;;;;;;6.40;3.10;;;;;;;3.43;76.04;98803.41;132281;1251;114102;-65
2023/01/16 08:39:41;;;;;;;6.90;3.20;;;;;;;3.52;76.03;98804.95;132029;1251;114741;-63
2023/01/16 08:53:17;;;;;;;11.60;3.20;;;;;;;3.97;75.29;98800.26;131851;1251;115461;-66
2023/01/16 08:56:22;;;;;;;7.20;3.20;;;;;;;4.07;75.41;98798.92;128971;1254;114463;-64
2023/01/16 08:59:32;;;;;;;6.90;2.90;;;;;;;4.16;75.21;98797.83;128910;1250;114683;-66
2023/01/16 09:02:38;;;;;;;7.40;3.20;;;;;;;4.22;74.91;98794.85;132101;1253;114547;-66
2023/01/16 09:05:43;;;;;;;9.70;3.20;;;;;;;4.27;75.06;98783.11;129202;1257;127835;-65
2023/01/16 09:08:47;;;;;;;8.80;3.60;;;;;;;4.34;74.81;98781.21;132136;1251;113606;-66
2023/01/16 09:15:21;;;;;;;7.40;3.50;;;;;;;4.49;74.69;98762.64;132014;1251;114476;-66
2023/01/16 09:18:24;;;;;;;8.10;3.50;;;;;;;4.58;74.69;98756.89;131982;1251;115153;-65
2023/01/16 09:21:31;;;;;;;;;;;;;;;4.68;74.36;98748.96;129049;1255;128937;-65
2023/01/16 09:24:34;;;;;;;6.70;4.20;;;;;;;4.77;74.52;98739.69;132033;1251;114847;-66
2023/01/16 09:27:40;;;;;;;12.10;3.90;;;;;;;4.85;74.10;98723.34;131226;1256;114785;-65
2023/01/16 09:30:46;;;;;;;16.80;9.30;;;;;;;4.95;74.05;98717.73;132110;1251;114466;-65
2023/01/16 09:33:52;;;;;;;13.60;4.80;;;;;;;5.04;73.64;98708.54;129213;1251;114050;-65
2023/01/16 09:36:55;;;;;;;9.10;3.40;;;;;;;5.13;73.60;98708.80;131961;1251;127648;-66
2023/01/16 09:39:59;;;;;;;10.80;3.60;;;;;;;5.21;73.11;98710.70;129022;1256;114693;-65
2023/01/16 09:43:39;;;;;;;8.60;3.70;;;;;;;5.27;73.33;98709.65;129098;1258;114696;-67
2023/01/16 09:46:46;;;;;;;6.10;3.50;;;;;;;5.36;72.81;98697.66;132013;1251;114676;-66
2023/01/16 09:49:56;;;;;;;6.80;3.10;;;;;;;5.45;72.63;98705.52;128940;1256;114024;-66
2023/01/16 10:00:16;;;;;;;20.30;6.50;;;;;;;5.67;72.19;98692.30;132041;1251;114645;-66
2023/01/16 10:03:25;;;;;;;9.70;5.10;;;;;;;5.72;72.03;98688.61;129235;1251;114162;-67
2023/01/16 10:06:55;;;;;;;10.80;5.00;;;;;;;5.74;71.15;98676.98;130474;1255;113325;-66
2023/01/16 10:10:03;;;;;;;14.10;5.30;;;;;;;5.72;70.88;98673.59;132242;1255;127774;-65
2023/01/16 10:13:37;;;;;;;11.40;5.20;;;;;;;5.67;70.67;98662.50;132141;1251;113688;-64
2023/01/16 10:16:50;;;;;;;11.00;4.60;;;;;;;5.65;70.64;98652.87;129091;1255;114751;-64
2023/01/16 10:20:05;;;;;;;18.10;6.80;;;;;;;5.62;70.25;98642.23;128999;1256;114167;-65
2023/01/16 10:23:42;;;;;;;9.90;4.50;;;;;;;5.62;70.12;98636.21;128990;1251;115272;-64
2023/01/16 10:26:54;;;;;;;16.70;9.20;;;;;;;5.60;69.81;98627.98;128880;1251;127726;-65
2023/01/16 10:30:16;;;;;;;7.20;3.30;;;;;;;5.62;69.89;98617.95;128985;1255;114747;-65
2023/01/16 10:33:35;;;;;;;8.00;3.10;;;;;;;5.66;69.57;98614.05;129011;1253;113903;-65
2023/01/16 10:36:47;;;;;;;9.30;3.20;;;;;;;5.68;69.27;98603.86;128949;1251;113907;-64
2023/01/16 10:39:52;;;;;;;16.40;5.40;;;;;;;5.67;69.22;98594.16;128926;1256;113324;-64
2023/01/16 10:50:12;;;;;;;12.70;4.30;;;;;;;5.68;69.55;98572.86;129622;1253;114757;-63
2023/01/16 10:53:17;;;;;;;16.20;5.40;;;;;;;5.72;69.69;98567.14;128880;1257;114276;-63
2023/01/16 10:56:21;;;;;;;13.90;6.20;;;;;;;5.75;69.54;98554.34;128877;1257;115291;-64
2023/01/16 10:59:27;;;;;;;8.30;4.30;;;;;;;5.80;69.32;98544.89;128843;1256;127894;-63
2023/01/16 11:02:33;;;;;;;;;;;;;;;5.86;69.06;98536.73;128835;1251;115316;-64
2023/01/16 11:05:39;;;;;;;11.60;5.20;;;;;;;5.90;68.86;98526.19;128920;1256;114257;-65
2023/01/16 11:09:01;;;;;;;6.70;2.60;;;;;;;5.95;68.31;98516.20;128924;1255;113216;-64
2023/01/16 11:19:53;;;;;;;6.80;4.20;;;;;;;6.09;68.11;98493.08;128852;1257;115944;-64
2023/01/16 11:23:12;;;;;;;9.80;5.20;;;;;;;6.11;68.03;98484.65;128752;1257;115425;-64
2023/01/16 11:26:17;;;;;;;6.50;2.40;;;;;;;6.12;67.83;98480.48;129088;1259;114034;-63
2023/01/16 11:29:23;;;;;;;;;;;;;;;6.13;67.39;98471.23;128994;1254;114434;-64
2023/01/16 11:32:37;;;;;;;8.20;3.00;;;;;;;6.14;67.67;98463.14;128938;1255;127574;-64
2023/01/16 11:35:56;;;;;;;8.80;3.80;;;;;;;6.15;66.76;98451.58;129321;1259;114556;-63
2023/01/16 11:39:05;;;;;;;8.90;5.10;;;;;;;6.15;66.23;98447.48;128865;1256;114431;-64
2023/01/16 11:46:11;;;;;;;11.70;5.60;;;;;;;6.19;66.02;98432.20;128887;1255;114654;-64
2023/01/16 11:49:25;;;;;;;5.90;2.60;;;;;;;6.20;66.07;98423.27;128987;1256;127864;-64
2023/01/16 11:52:37;;;;;;;11.60;4.90;;;;;;;6.22;65.77;98415.15;129024;1255;114715;-64
2023/01/16 11:55:50;;;;;;;6.00;3.00;;;;;;;6.25;66.23;98414.63;128937;1254;114453;-64
2023/01/16 11:59:14;;;;;;;8.00;2.80;;;;;;;6.29;65.51;98408.73;132004;1255;114696;-62
2023/01/16 12:03:00;;;;;;;6.40;4.00;;;;;;;6.31;65.32;98399.71;128743;1257;114824;-63
2023/01/16 12:06:37;;;;;;;6.50;2.60;;;;;;;6.32;65.39;98393.98;128983;1256;128867;-64
2023/01/16 12:10:07;;;;;;;6.50;1.90;;;;;;;6.32;64.89;98386.37;128813;1251;114957;-63
2023/01/16 12:16:47;;;;;;;13.50;6.80;;;;;;;6.33;64.90;98369.45;128968;1256;114042;-63
2023/01/16 12:20:04;;;;;;;5.00;2.50;;;;;;;6.34;64.61;98366.02;128919;1256;114690;-63
2023/01/16 12:23:14;;;;;;;;;;;;;;;6.35;64.36;98357.64;129093;1256;127721;-64
2023/01/16 12:26:44;;;;;;;20.60;9.50;;;;;;;6.36;64.20;98353.13;128835;1255;114958;-64
2023/01/16 12:30:22;;;;;;;5.80;2.40;;;;;;;6.38;64.05;98344.48;128954;1255;113241;-64
2023/01/16 12:34:03;;;;;;;4.90;2.30;;;;;;;6.39;64.13;98330.07;128852;1256;113458;-64
2023/01/16 12:37:31;;;;;;;4.70;2.40;;;;;;;6.41;64.11;98329.62;129048;1255;113313;-64
2023/01/16 12:40:51;;;;;;;4.00;2.40;;;;;;;6.40;64.15;98326.27;128850;1255;127668;-64
2023/01/16 12:44:31;;;;;;;5.60;2.80;;;;;;;6.39;63.82;98320.13;128938;1253;115857;-63
2023/01/16 12:47:58;;;;;;;7.30;4.10;;;;;;;6.35;63.16;98314.89;128840;1255;113137;-63
2023/01/16 12:51:10;;;;;;;8.20;2.90;;;;;;;6.31;63.42;98317.44;128814;1251;113194;-63
2023/01/16 12:54:35;;;;;;;5.00;1.90;;;;;;;6.29;63.24;98313.50;128900;1251;114022;-63
2023/01/16 12:58:03;;;;;;;5.10;2.40;;;;;;;6.27;62.82;98306.17;128814;1251;127712;-63
2023/01/16 13:01:13;;;;;;;5.90;3.10;;;;;;;6.26;62.92;98296.88;128936;1253;114893;-64
2023/01/16 13:04:32;;;;;;;5.70;2.50;;;;;;;6.25;63.18;98288.77;128853;1256;113137;-64
2023/01/16 13:07:46;;;;;;;6.00;2.70;;;;;;;6.24;62.93;98280.83;128878;1254;114714;-64
2023/01/16 13:14:23;;;;;;;9.00;2.50;;;;;;;6.23;62.18;98271.35;128862;1255;127798;-63
2023/01/16 13:17:44;;;;;;;11.70;6.20;;;;;;;6.22;61.87;98263.41;129099;1256;113741;-62
2023/01/16 13:21:02;;;;;;;9.20;2.80;;;;;;;6.22;61.90;98255.43;128971;1257;113296;-63
2023/01/16 13:24:24;;;;;;;5.70;2.20;;;;;;;6.23;61.65;98250.44;128871;1251;113453;-64
2023/01/16 13:27:42;;;;;;;5.60;2.00;;;;;;;6.22;61.54;98242.11;128830;1251;113411;-63
2023/01/16 13:30:53;;;;;;;6.10;2.60;;;;;;;6.22;61.17;98240.71;128842;1251;128243;-64
2023/01/16 13:34:28;;;;;;;4.80;2.30;;;;;;;6.22;61.32;98239.33;128781;1259;115417;-64
2023/01/16 13:38:06;;;;;;;6.90;2.60;;;;;;;6.22;61.77;98234.48;128906;1257;113409;-64
2023/01/16 13:41:22;;;;;;;7.20;2.70;;;;;;;6.23;61.66;98227.55;129858;1251;115941;-63
2023/01/16 13:48:05;;;;;;;6.10;2.70;;;;;;;6.20;61.63;98203.65;128914;1257;128665;-65
2023/01/16 13:51:16;;;;;;;;;;;;;;;6.19;61.63;98201.27;128991;1251;114759;-64
2023/01/16 13:54:46;;;;;;;7.80;2.40;;;;;;;6.16;61.70;98199.83;129294;1253;114039;-64
2023/01/16 13:58:21;;;;;;;4.90;2.10;;;;;;;6.13;61.49;98192.92;129209;1255;113248;-64
2023/01/16 14:01:44;;;;;;;7.30;3.00;;;;;;;6.10;61.92;98181.98;129075;1251;114866;-65
2023/01/16 14:05:45;;;;;;;6.00;3.30;;;;;;;6.06;61.77;98178.10;129221;1255;126660;-64
2023/01/16 14:09:07;;;;;;;7.30;2.90;;;;;;;6.03;61.87;98172.48;128166;1265;115375;-64
2023/01/16 14:12:23;;;;;;;5.40;2.30;;;;;;;6.00;61.53;98167.34;128355;1260;113658;-65
2023/01/16 14:19:25;;;;;;;4.80;2.50;;;;;;;5.94;61.66;98162.60;128284;1259;113335;-64
2023/01/16 14:26:08;;;;;;;7.50;3.60;;;;;;;5.86;61.70;98153.19;128440;1261;115362;-62
2023/01/16 14:29:19;;;;;;;8.40;3.40;;;;;;;5.82;61.92;98146.72;128495;1262;113314;-63
2023/01/16 14:32:31;;;;;;;8.70;3.10;;;;;;;5.77;62.06;98143.30;128559;1260;113574;-63
2023/01/16 14:35:45;;;;;;;7.80;3.30;;;;;;;5.73;62.35;98142.12;128412;1262;113813;-63
2023/01/16 14:38:54;;;;;;;8.00;3.80;;;;;;;5.68;62.43;98138.77;128203;1260;128069;-63
2023/01/16 14:56:37;;;;;;;9.10;4.30;;;;;;;5.36;64.48;98100.41;131969;1251;128665;-66
2023/01/16 14:59:53;;;;;;;15.10;8.00;;;;;;;5.29;64.88;98092.86;128849;1251;115373;-65
2023/01/16 15:03:08;;;;;;;6.90;4.70;;;;;;;5.23;64.95;98095.41;128929;1256;113562;-64
2023/01/16 15:06:13;;;;;;;11.80;5.10;;;;;;;5.16;65.31;98092.45;128995;1251;113328;-64
2023/01/16 15:09:18;;;;;;;9.10;4.30;;;;;;;5.09;65.27;98091.33;128840;1251;113357;-64
2023/01/16 15:12:39;;;;;;;9.00;4.30;;;;;;;5.00;65.58;98090.25;128812;1255;128014;-63
2023/01/16 15:15:50;;;;;;;10.90;3.90;;;;;;;4.91;65.72;98088.71;128738;1251;114832;-63
2023/01/16 15:22:44;;;;;;;13.70;4.30;;;;;;;4.76;65.97;98084.69;128817;1257;114705;-63
2023/01/16 15:26:02;;;;;;;9.70;4.50;;;;;;;4.68;66.29;98085.69;128873;1251;113236;-63
2023/01/16 15:29:29;;;;;;;10.10;5.10;;;;;;;4.60;66.44;98078.92;129261;1251;128997;-65
2023/01/16 15:33:47;;;;;;;13.80;5.80;;;;;;;4.52;66.59;98071.10;129195;1255;114133;-63
2023/01/16 15:36:38;;;;;;;12.80;7.30;;;;;;;4.42;66.72;98068.15;128827;1251;113668;-62
2023/01/16 15:39:45;;;;;;;18.40;7.70;;;;;;;4.34;66.93;98062.80;128969;1251;114706;-62
2023/01/16 15:46:45;;;;;;;22.40;13.10;;;;;;;4.18;67.46;98055.82;128829;1256;127906;-63
2023/01/16 15:50:09;;;;;;;39.70;19.60;;;;;;;4.10;67.59;98060.02;128948;1251;114743;-62
2023/01/16 15:53:16;;;;;;;69.80;28.00;;;;;;;4.03;67.71;98053.89;128795;1251;114481;-63
2023/01/16 15:56:41;;;;;;;105.10;45.50;;;;;;;3.96;67.99;98044.90;128837;1251;113140;-64
2023/01/16 15:59:54;;;;;;;73.40;35.80;;;;;;;3.90;68.15;98047.39;128842;1251;113469;-64
2023/01/16 16:03:14;;;;;;;95.30;50.50;;;;;;;3.85;68.19;98045.55;128850;1257;128786;-66
2023/01/16 16:06:20;;;;;;;89.00;50.70;;;;;;;3.79;68.52;98042.20;128877;1251;115880;-66
2023/01/16 16:09:26;;;;;;;69.90;41.20;;;;;;;3.74;68.43;98041.27;129822;1258;114312;-66
2023/01/16 16:12:34;;;;;;;49.20;28.30;;;;;;;3.69;68.58;98036.11;128888;1251;113298;-64
2023/01/16 16:19:35;;;;;;;49.90;31.00;;;;;;;3.54;69.09;98026.33;129098;1256;127841;-65
2023/01/16 16:22:49;;;;;;;19.30;9.70;;;;;;;3.48;69.02;98027.19;128923;1256;115186;-66
2023/01/16 16:25:55;;;;;;;18.40;8.40;;;;;;;3.43;69.36;98032.27;132021;1254;113457;-64
2023/01/16 16:29:03;;;;;;;14.90;6.50;;;;;;;3.38;69.52;98035.20;128883;1251;113208;-65